Time;durP1;ratioP1;P1;durP2;ratioP2;P2;SDS_P1;SDS_P2;PMS_P1;PMS_P2;Temp;Humidity;BMP_temperature;BMP_pressure;BME280_temperature;BME280_humidity;BME280_pressure;Samples;Min_cycle;Max_cycle;Signal;HPM_P1;HPM_P2
2023/01/03 00:01:31;;;;;;;;;;;18.90;66.20;;;;;;4970766;28;1273;-71
2023/01/03 00:03:57;;;;;;;;;;;18.90;66.10;;;;;;4971086;28;1983;-71
2023/01/03 00:06:27;;;;;;;;;;;18.90;66.20;;;;;;4972053;28;828;-71
2023/01/03 00:08:53;;;;;;;;;;;18.90;66.20;;;;;;4969752;28;832;-71
2023/01/03 00:12:22;;;;;;;;;;;18.80;66.10;;;;;;4970499;28;1285;-71
2023/01/03 00:14:04;;;;;;;;;;;18.90;66.20;;;;;;4971678;28;1044;-71
2023/01/03 00:16:30;;;;;;;;;;;18.90;66.20;;;;;;4971898;28;935;-71
2023/01/03 00:18:55;;;;;;;;;;;18.80;66.20;;;;;;4970958;28;1007;-71
2023/01/03 00:21:21;;;;;;;;;;;18.90;66.20;;;;;;4971698;28;1292;-71
2023/01/03 00:23:46;;;;;;;;;;;18.90;66.30;;;;;;4971722;28;1945;-71
2023/01/03 00:26:13;;;;;;;;;;;18.80;66.20;;;;;;4971771;28;880;-71
2023/01/03 00:28:38;;;;;;;;;;;18.80;66.20;;;;;;4970436;28;886;-71
2023/01/03 00:31:05;;;;;;;;;;;18.80;66.20;;;;;;4972005;28;1298;-71
2023/01/03 00:33:30;;;;;;;;;;;18.80;66.20;;;;;;4971505;28;912;-71
2023/01/03 00:35:59;;;;;;;;;;;18.80;66.20;;;;;;4969828;28;1062;-71
2023/01/03 00:38:25;;;;;;;;;;;18.80;66.20;;;;;;4972257;28;1274;-71
2023/01/03 00:40:50;;;;;;;;;;;18.80;66.30;;;;;;4971278;28;1254;-71
2023/01/03 00:43:27;;;;;;;;;;;18.80;66.30;;;;;;4971451;28;1915;-71
2023/01/03 00:45:53;;;;;;;;;;;18.80;66.30;;;;;;4971624;28;919;-71
2023/01/03 00:48:18;;;;;;;;;;;18.80;66.30;;;;;;4971342;28;1456;-71
2023/01/03 00:50:44;;;;;;;;;;;18.80;66.30;;;;;;4971266;28;1339;-71
2023/01/03 00:53:09;;;;;;;;;;;18.80;66.30;;;;;;4971236;28;912;-71
2023/01/03 00:55:35;;;;;;;;;;;18.80;66.30;;;;;;4971555;28;811;-71
2023/01/03 00:58:00;;;;;;;;;;;18.80;66.30;;;;;;4971323;28;900;-71
2023/01/03 01:00:26;;;;;;;;;;;18.80;66.30;;;;;;4971154;28;1251;-71
2023/01/03 01:02:52;;;;;;;;;;;18.80;66.40;;;;;;4971444;28;881;-71
2023/01/03 01:05:17;;;;;;;;;;;18.80;66.40;;;;;;4970172;28;1911;-71
2023/01/03 01:07:43;;;;;;;;;;;18.80;66.40;;;;;;4971152;28;871;-71
2023/01/03 01:10:08;;;;;;;;;;;18.80;66.40;;;;;;4970927;28;894;-71
2023/01/03 01:12:34;;;;;;;;;;;18.80;66.40;;;;;;4970557;28;1261;-71
2023/01/03 01:14:59;;;;;;;;;;;18.80;66.40;;;;;;4971321;28;922;-71
2023/01/03 01:17:27;;;;;;;;;;;18.80;66.40;;;;;;4969798;28;982;-71
2023/01/03 01:19:52;;;;;;;;;;;18.80;66.40;;;;;;4970276;28;876;-71
2023/01/03 01:22:18;;;;;;;;;;;18.80;66.40;;;;;;4970815;28;1354;-71
2023/01/03 01:24:43;;;;;;;;;;;18.80;66.40;;;;;;4969751;28;1967;-71
2023/01/03 01:27:09;;;;;;;;;;;18.80;66.50;;;;;;4971112;28;864;-71
2023/01/03 01:29:35;;;;;;;;;;;18.80;66.50;;;;;;4971113;28;815;-71
2023/01/03 01:32:01;;;;;;;;;;;18.80;66.50;;;;;;4969686;28;1302;-71
2023/01/03 01:34:26;;;;;;;;;;;18.80;66.50;;;;;;4971135;28;1046;-71
2023/01/03 01:36:51;;;;;;;;;;;18.80;67.20;;;;;;4970918;28;816;-71
2023/01/03 01:39:19;;;;;;;;;;;18.80;66.50;;;;;;4970899;28;1010;-70
2023/01/03 01:44:41;;;;;;;;;;;18.70;66.40;;;;;;4971128;28;1902;-71
2023/01/03 01:47:13;;;;;;;;;;;18.70;66.40;;;;;;4970900;28;1313;-71
2023/01/03 01:49:38;;;;;;;;;;;18.80;66.50;;;;;;4972327;28;932;-71
2023/01/03 01:52:04;;;;;;;;;;;18.70;66.50;;;;;;4973096;28;1528;-71
2023/01/03 01:54:29;;;;;;;;;;;18.70;66.50;;;;;;4972542;28;901;-71
2023/01/03 01:56:55;;;;;;;;;;;18.70;66.50;;;;;;4973095;28;903;-71
2023/01/03 01:59:20;;;;;;;;;;;18.70;66.50;;;;;;4974117;28;939;-70
2023/01/03 02:01:46;;;;;;;;;;;18.70;66.50;;;;;;4973227;28;1390;-70
2023/01/03 02:04:22;;;;;;;;;;;18.70;66.50;;;;;;4972822;28;1903;-70
2023/01/03 02:06:47;;;;;;;;;;;18.70;66.50;;;;;;4972255;28;877;-71
2023/01/03 02:09:13;;;;;;;;;;;18.70;66.50;;;;;;4972628;28;908;-70
2023/01/03 02:14:42;;;;;;;;;;;18.70;66.60;;;;;;4974146;28;791;-70
2023/01/03 02:17:07;;;;;;;;;;;18.70;66.50;;;;;;4973876;28;933;-70
2023/01/03 02:19:52;;;;;;;;;;;18.70;66.60;;;;;;4973733;28;828;-71
2023/01/03 02:22:30;;;;;;;;;;;18.70;66.60;;;;;;4973902;28;1290;-71
2023/01/03 02:24:58;;;;;;;;;;;18.70;66.70;;;;;;4972406;28;1906;-71
2023/01/03 02:27:33;;;;;;;;;;;18.70;66.60;;;;;;4973694;28;912;-70
2023/01/03 02:30:10;;;;;;;;;;;18.70;66.60;;;;;;4973430;28;925;-71
2023/01/03 02:32:42;;;;;;;;;;;18.70;66.60;;;;;;4972251;28;1298;-70
2023/01/03 02:35:07;;;;;;;;;;;18.70;66.70;;;;;;4972491;28;1203;-71
2023/01/03 02:37:51;;;;;;;;;;;18.70;66.60;;;;;;4973538;28;1046;-70
2023/01/03 02:40:17;;;;;;;;;;;18.70;66.70;;;;;;4973041;28;1330;-71
2023/01/03 02:43:00;;;;;;;;;;;18.70;66.60;;;;;;4972716;28;1320;-71
2023/01/03 02:45:26;;;;;;;;;;;18.70;66.70;;;;;;4971685;28;1955;-71
2023/01/03 02:47:53;;;;;;;;;;;18.70;66.70;;;;;;4973110;28;968;-71
2023/01/03 02:50:19;;;;;;;;;;;18.70;66.70;;;;;;4971523;28;1022;-71
2023/01/03 02:52:45;;;;;;;;;;;18.70;66.70;;;;;;4971948;28;972;-71
2023/01/03 02:55:13;;;;;;;;;;;18.70;66.70;;;;;;4971624;28;996;-71
2023/01/03 02:57:40;;;;;;;;;;;18.70;66.80;;;;;;4971424;28;1649;-71
2023/01/03 03:00:10;;;;;;;;;;;18.70;66.70;;;;;;4971295;28;1006;-71
2023/01/03 03:02:35;;;;;;;;;;;18.70;66.70;;;;;;4971383;28;1358;-71
2023/01/03 03:05:01;;;;;;;;;;;18.70;66.80;;;;;;4971936;28;1910;-71
2023/01/03 03:07:28;;;;;;;;;;;18.70;66.70;;;;;;4971836;28;829;-71
2023/01/03 03:15:23;;;;;;;;;;;18.70;66.70;;;;;;4971910;28;831;-70
2023/01/03 03:17:50;;;;;;;;;;;18.70;66.70;;;;;;4971714;28;833;-70
2023/01/03 03:25:49;;;;;;;;;;;18.70;66.70;;;;;;4971809;28;794;-71
2023/01/03 03:28:34;;;;;;;;;;;18.60;66.70;;;;;;4971106;28;963;-71
2023/01/03 03:31:16;;;;;;;;;;;18.70;66.70;;;;;;4971920;28;1398;-71
2023/01/03 03:33:48;;;;;;;;;;;18.60;66.70;;;;;;4972108;28;908;-71
2023/01/03 03:36:33;;;;;;;;;;;18.70;66.80;;;;;;4972392;28;1399;-71
2023/01/03 03:38:58;;;;;;;;;;;18.70;66.70;;;;;;4968867;28;1309;-71
2023/01/03 03:47:25;;;;;;;;;;;18.60;66.70;;;;;;4971329;28;808;-71
2023/01/03 03:49:51;;;;;;;;;;;18.60;66.70;;;;;;4970762;28;921;-71
2023/01/03 03:52:18;;;;;;;;;;;18.70;66.70;;;;;;4970764;28;1264;-70
2023/01/03 03:54:45;;;;;;;;;;;18.60;66.70;;;;;;4971133;28;846;-70
2023/01/03 03:57:12;;;;;;;;;;;18.60;66.70;;;;;;4971031;28;895;-71
2023/01/03 03:59:38;;;;;;;;;;;18.60;66.70;;;;;;4970706;28;991;-70
2023/01/03 04:02:04;;;;;;;;;;;18.60;66.70;;;;;;4970739;28;1358;-70
2023/01/03 04:04:36;;;;;;;;;;;18.60;66.70;;;;;;4971242;28;1922;-70
2023/01/03 04:07:02;;;;;;;;;;;18.60;66.70;;;;;;4970199;28;904;-69
2023/01/03 04:09:27;;;;;;;;;;;18.60;66.70;;;;;;4970498;28;874;-71
2023/01/03 04:11:53;;;;;;;;;;;18.60;66.70;;;;;;4970741;28;1278;-70
2023/01/03 04:14:18;;;;;;;;;;;18.60;66.70;;;;;;4971832;28;989;-70
2023/01/03 04:16:44;;;;;;;;;;;18.60;66.70;;;;;;4971982;28;1051;-71
2023/01/03 04:19:09;;;;;;;;;;;18.60;66.70;;;;;;4971528;28;885;-71
2023/01/03 04:21:35;;;;;;;;;;;18.60;66.70;;;;;;4970452;28;1245;-71
2023/01/03 04:24:02;;;;;;;;;;;18.60;66.70;;;;;;4970330;28;1911;-71
2023/01/03 04:26:27;;;;;;;;;;;18.60;66.70;;;;;;4971871;28;968;-71
2023/01/03 04:28:52;;;;;;;;;;;18.60;66.70;;;;;;4971489;28;828;-71
2023/01/03 04:31:18;;;;;;;;;;;18.60;66.70;;;;;;4972110;28;1351;-71
2023/01/03 04:33:44;;;;;;;;;;;18.60;66.70;;;;;;4971688;28;1341;-71
2023/01/03 04:36:10;;;;;;;;;;;18.60;66.70;;;;;;4971465;28;872;-71
2023/01/03 04:38:35;;;;;;;;;;;18.60;66.80;;;;;;4971533;28;1324;-71
2023/01/03 04:41:04;;;;;;;;;;;18.60;66.80;;;;;;4971378;28;1269;-71
2023/01/03 04:46:14;;;;;;;;;;;18.60;66.80;;;;;;4971677;28;766;-71
2023/01/03 04:48:39;;;;;;;;;;;18.60;66.80;;;;;;4971697;28;872;-71
2023/01/03 04:51:05;;;;;;;;;;;18.60;66.80;;;;;;4971034;28;1357;-71
2023/01/03 04:53:30;;;;;;;;;;;18.60;66.80;;;;;;4971481;28;900;-71
2023/01/03 04:55:56;;;;;;;;;;;18.60;66.80;;;;;;4971403;28;1055;-71
2023/01/03 04:58:21;;;;;;;;;;;18.60;66.80;;;;;;4971293;28;849;-71
2023/01/03 05:00:46;;;;;;;;;;;18.60;66.80;;;;;;4970987;28;1363;-71
2023/01/03 05:03:12;;;;;;;;;;;18.60;66.80;;;;;;4970890;28;1269;-71
2023/01/03 05:05:37;;;;;;;;;;;18.60;66.80;;;;;;4969785;28;1886;-71
2023/01/03 05:08:04;;;;;;;;;;;18.60;66.80;;;;;;4970863;28;818;-71
2023/01/03 05:10:29;;;;;;;;;;;18.60;66.80;;;;;;4970930;28;1382;-71
2023/01/03 05:13:01;;;;;;;;;;;18.60;66.80;;;;;;4970763;28;845;-71
2023/01/03 05:15:30;;;;;;;;;;;18.60;66.70;;;;;;4970278;28;853;-70
2023/01/03 05:17:56;;;;;;;;;;;18.60;66.70;;;;;;4969846;28;1178;-70
2023/01/03 05:25:51;;;;;;;;;;;18.70;66.50;;;;;;4974392;28;754;-71
2023/01/03 05:28:17;;;;;;;;;;;18.70;66.40;;;;;;4975931;28;803;-70
2023/01/03 05:30:42;;;;;;;;;;;18.70;66.30;;;;;;4973948;28;1324;-70
2023/01/03 05:33:07;;;;;;;;;;;18.70;66.20;;;;;;4974918;28;991;-70
2023/01/03 05:35:33;;;;;;;;;;;18.80;66.20;;;;;;4973300;28;1023;-70
2023/01/03 05:37:58;;;;;;;;;;;18.80;66.10;;;;;;4974784;28;875;-70
2023/01/03 05:40:24;;;;;;;;;;;18.80;66.00;;;;;;4974360;28;1487;-70
2023/01/03 05:42:49;;;;;;;;;;;18.80;66.00;;;;;;4974456;28;1263;-70
2023/01/03 05:45:15;;;;;;;;;;;18.80;65.90;;;;;;4974595;28;1977;-70
2023/01/03 05:47:40;;;;;;;;;;;18.90;65.90;;;;;;4973845;28;817;-70
2023/01/03 05:50:06;;;;;;;;;;;18.90;65.90;;;;;;4974622;28;1356;-71
2023/01/03 05:52:31;;;;;;;;;;;18.90;65.80;;;;;;4956294;28;2287;-70
2023/01/03 05:54:57;;;;;;;;;;;18.90;65.70;;;;;;4974184;28;1122;-71
2023/01/03 05:57:22;;;;;;;;;;;18.90;65.60;;;;;;4974062;28;887;-71
2023/01/03 05:59:48;;;;;;;;;;;18.90;65.60;;;;;;4974289;28;883;-71
2023/01/03 06:02:13;;;;;;;;;;;18.90;65.60;;;;;;4973757;28;1284;-69
2023/01/03 06:04:39;;;;;;;;;;;19.00;65.60;;;;;;4974537;28;1902;-70
2023/01/03 06:07:04;;;;;;;;;;;19.00;65.60;;;;;;4974196;28;872;-71
2023/01/03 06:09:30;;;;;;;;;;;18.90;65.40;;;;;;4973910;28;889;-70
2023/01/03 06:11:56;;;;;;;;;;;19.00;65.40;;;;;;4972277;28;1538;-70
2023/01/03 06:14:21;;;;;;;;;;;19.10;65.30;;;;;;4972773;28;929;-70
2023/01/03 06:19:38;;;;;;;;;;;19.30;65.00;;;;;;4957556;28;1276;-70
2023/01/03 06:22:04;;;;;;;;;;;19.40;64.80;;;;;;4973897;28;1241;-70
2023/01/03 06:24:29;;;;;;;;;;;19.50;64.50;;;;;;4973729;28;1963;-69
2023/01/03 06:26:55;;;;;;;;;;;19.60;64.30;;;;;;4973843;28;872;-70
2023/01/03 06:29:20;;;;;;;;;;;19.70;64.10;;;;;;4973275;28;971;-71
2023/01/03 06:31:45;;;;;;;;;;;19.70;63.70;;;;;;4977730;28;1382;-70
2023/01/03 06:34:11;;;;;;;;;;;19.80;63.40;;;;;;4972502;28;896;-70
2023/01/03 06:36:36;;;;;;;;;;;19.90;63.20;;;;;;4973588;28;941;-70
2023/01/03 06:39:02;;;;;;;;;;;20.00;62.90;;;;;;4972641;28;1006;-72
2023/01/03 06:41:27;;;;;;;;;;;20.10;62.70;;;;;;4973541;28;1279;-70
2023/01/03 06:43:53;;;;;;;;;;;20.20;62.50;;;;;;4973398;28;1906;-70
2023/01/03 06:55:07;;;;;;;;;;;20.40;61.70;;;;;;4895669;29;1419;-70
2023/01/03 06:57:33;;;;;;;;;;;20.40;61.50;;;;;;4956251;28;948;-71
2023/01/03 06:59:58;;;;;;;;;;;20.40;61.40;;;;;;4973052;28;830;-70
2023/01/03 07:02:23;;;;;;;;;;;20.50;61.40;;;;;;4973184;28;1356;-70
2023/01/03 07:04:49;;;;;;;;;;;20.50;61.30;;;;;;4969305;28;1964;-71
2023/01/03 07:07:14;;;;;;;;;;;20.50;61.20;;;;;;4972804;28;826;-70
2023/01/03 07:09:40;;;;;;;;;;;20.50;61.20;;;;;;4972629;28;894;-72
2023/01/03 07:14:52;;;;;;;;;;;20.60;61.40;;;;;;4973308;28;762;-71
2023/01/03 07:17:17;;;;;;;;;;;20.60;61.40;;;;;;4973840;28;875;-71
2023/01/03 07:19:45;;;;;;;;;;;20.60;61.30;;;;;;4973299;28;869;-70
2023/01/03 07:22:11;;;;;;;;;;;20.60;61.40;;;;;;4971693;28;1258;-71
2023/01/03 07:24:36;;;;;;;;;;;20.50;61.30;;;;;;4972684;28;2026;-70
2023/01/03 07:27:02;;;;;;;;;;;20.50;61.30;;;;;;4975307;28;1560;-70
2023/01/03 07:29:27;;;;;;;;;;;20.50;61.30;;;;;;4972472;28;758;-70
2023/01/03 07:31:53;;;;;;;;;;;20.50;61.20;;;;;;4973461;28;1387;-70
2023/01/03 07:34:18;;;;;;;;;;;20.50;61.20;;;;;;4972565;28;952;-70
2023/01/03 07:36:43;;;;;;;;;;;20.50;61.30;;;;;;4971393;28;1034;-71
2023/01/03 07:39:09;;;;;;;;;;;20.50;61.20;;;;;;4972121;28;1321;-70
2023/01/03 07:44:18;;;;;;;;;;;20.50;61.30;;;;;;4972430;28;1902;-71
2023/01/03 07:46:44;;;;;;;;;;;20.50;61.40;;;;;;4972115;28;908;-71
2023/01/03 07:49:09;;;;;;;;;;;20.50;61.40;;;;;;4971986;28;1043;-70
2023/01/03 07:51:35;;;;;;;;;;;20.50;61.40;;;;;;4972185;28;1278;-70
2023/01/03 07:54:01;;;;;;;;;;;20.40;61.40;;;;;;4970579;28;859;-72
2023/01/03 07:56:26;;;;;;;;;;;20.40;61.50;;;;;;4987016;28;1225;-72
2023/01/03 07:58:52;;;;;;;;;;;20.40;61.60;;;;;;4970929;28;1367;-72
2023/01/03 08:01:18;;;;;;;;;;;20.40;61.60;;;;;;4970482;28;1348;-72
2023/01/03 08:03:44;;;;;;;;;;;20.40;61.70;;;;;;4968789;28;1969;-72
2023/01/03 08:06:10;;;;;;;;;;;20.30;62.40;;;;;;4968890;28;1406;-72
2023/01/03 08:08:36;;;;;;;;;;;20.30;62.10;;;;;;4969179;28;1379;-73
2023/01/03 08:13:46;;;;;;;;;;;20.30;62.90;;;;;;4969418;28;1272;-73
2023/01/03 08:16:12;;;;;;;;;;;20.40;63.20;;;;;;4969540;28;1261;-71
2023/01/03 08:18:38;;;;;;;;;;;20.40;63.50;;;;;;4971800;28;1217;-72
2023/01/03 08:21:03;;;;;;;;;;;20.30;63.80;;;;;;4970095;28;1197;-72
2023/01/03 08:23:29;;;;;;;;;;;20.30;63.70;;;;;;4971463;28;1916;-72
2023/01/03 08:25:58;;;;;;;;;;;20.30;63.90;;;;;;4969685;28;858;-73
2023/01/03 08:28:24;;;;;;;;;;;20.30;64.00;;;;;;4969247;28;2145;-71
2023/01/03 08:30:49;;;;;;;;;;;20.30;64.10;;;;;;4970737;28;1985;-71
2023/01/03 08:33:15;;;;;;;;;;;20.30;64.30;;;;;;4971473;28;1317;-71
2023/01/03 08:35:42;;;;;;;;;;;20.30;64.40;;;;;;4952974;28;1221;-71
2023/01/03 08:38:09;;;;;;;;;;;20.30;64.70;;;;;;4971488;28;1483;-71
2023/01/03 08:40:34;;;;;;;;;;;20.30;64.70;;;;;;4970295;28;1242;-71
2023/01/03 08:43:01;;;;;;;;;;;20.30;64.90;;;;;;4970377;28;962;-72
2023/01/03 08:45:26;;;;;;;;;;;20.30;65.00;;;;;;4971416;28;1935;-71
2023/01/03 08:47:53;;;;;;;;;;;20.30;65.10;;;;;;4970337;28;851;-71
2023/01/03 08:50:19;;;;;;;;;;;20.30;65.60;;;;;;4971243;28;988;-71
2023/01/03 08:52:44;;;;;;;;;;;20.30;65.70;;;;;;4969837;28;1271;-71
2023/01/03 08:55:10;;;;;;;;;;;20.30;65.60;;;;;;4970311;28;824;-70
2023/01/03 08:57:35;;;;;;;;;;;20.30;65.50;;;;;;4971966;28;893;-70
2023/01/03 09:00:01;;;;;;;;;;;20.20;65.40;;;;;;4973993;28;864;-71
2023/01/03 09:02:26;;;;;;;;;;;20.20;66.40;;;;;;4975700;28;1335;-71
2023/01/03 09:04:51;;;;;;;;;;;20.20;65.60;;;;;;4976235;28;1950;-71
2023/01/03 09:07:17;;;;;;;;;;;20.20;65.70;;;;;;4976059;28;916;-72
2023/01/03 09:09:42;;;;;;;;;;;20.20;65.80;;;;;;4976542;28;865;-71
2023/01/03 09:12:08;;;;;;;;;;;20.20;66.00;;;;;;4975315;28;1216;-71
2023/01/03 09:14:33;;;;;;;;;;;20.20;66.10;;;;;;4977578;28;1271;-71
2023/01/03 09:16:59;;;;;;;;;;;20.20;66.10;;;;;;4975517;28;876;-71
2023/01/03 09:19:24;;;;;;;;;;;20.20;66.20;;;;;;4973624;28;928;-71
2023/01/03 09:21:50;;;;;;;;;;;20.20;66.20;;;;;;4974024;28;1781;-71
2023/01/03 09:24:15;;;;;;;;;;;20.20;66.20;;;;;;4955208;28;1899;-71
2023/01/03 09:26:41;;;;;;;;;;;20.20;66.10;;;;;;4975241;28;1011;-71
2023/01/03 09:29:06;;;;;;;;;;;20.20;66.10;;;;;;4973385;28;1464;-70
2023/01/03 09:31:33;;;;;;;;;;;20.20;66.10;;;;;;4989435;28;1699;-71
2023/01/03 09:33:59;;;;;;;;;;;20.20;66.20;;;;;;4974584;28;870;-72
2023/01/03 09:36:25;;;;;;;;;;;20.20;66.20;;;;;;4974712;28;1242;-70
2023/01/03 09:38:50;;;;;;;;;;;20.20;66.20;;;;;;4974688;28;1010;-70
2023/01/03 09:41:23;;;;;;;;;;;20.20;66.30;;;;;;4973142;28;1257;-71
2023/01/03 09:43:49;;;;;;;;;;;20.20;66.30;;;;;;4972265;28;3073;-71
2023/01/03 09:46:24;;;;;;;;;;;20.20;66.40;;;;;;4974360;28;1377;-71
2023/01/03 09:48:49;;;;;;;;;;;20.20;66.40;;;;;;4973388;28;927;-71
2023/01/03 10:05:15;;;;;;;;;;;20.10;66.60;;;;;;4972797;28;1946;-72
2023/01/03 10:07:46;;;;;;;;;;;20.10;66.80;;;;;;4973814;28;797;-72
2023/01/03 10:10:25;;;;;;;;;;;20.10;67.00;;;;;;4973496;28;817;-70
2023/01/03 10:12:57;;;;;;;;;;;20.10;67.00;;;;;;4974005;28;824;-71
2023/01/03 10:15:36;;;;;;;;;;;20.10;67.20;;;;;;4975051;28;851;-72
2023/01/03 10:18:02;;;;;;;;;;;20.10;67.30;;;;;;4973334;28;892;-72
2023/01/03 10:20:28;;;;;;;;;;;20.10;67.40;;;;;;4973810;28;2336;-71
2023/01/03 10:22:53;;;;;;;;;;;20.10;67.40;;;;;;4974224;28;857;-72
2023/01/03 10:25:22;;;;;;;;;;;20.10;67.70;;;;;;4974009;28;1969;-74
2023/01/03 10:27:58;;;;;;;;;;;20.20;67.90;;;;;;4972834;28;981;-72
2023/01/03 10:30:26;;;;;;;;;;;20.20;67.70;;;;;;4971656;28;1311;-73
2023/01/03 10:33:05;;;;;;;;;;;20.20;67.80;;;;;;4972307;28;873;-73
2023/01/03 10:35:31;;;;;;;;;;;20.20;67.80;;;;;;4972031;28;980;-73
2023/01/03 10:37:56;;;;;;;;;;;20.20;67.70;;;;;;4973445;28;947;-72
2023/01/03 10:40:39;;;;;;;;;;;20.10;67.70;;;;;;4973306;28;1365;-73
2023/01/03 10:43:28;;;;;;;;;;;20.20;67.60;;;;;;4972347;28;872;-73
2023/01/03 10:45:54;;;;;;;;;;;20.20;67.60;;;;;;4964614;28;1127;-74
2023/01/03 10:48:20;;;;;;;;;;;20.20;67.50;;;;;;4973082;28;875;-71
2023/01/03 10:50:46;;;;;;;;;;;20.20;67.60;;;;;;4972811;28;1432;-72
2023/01/03 10:53:12;;;;;;;;;;;20.10;67.60;;;;;;4973135;28;824;-72
2023/01/03 10:55:43;;;;;;;;;;;20.10;67.60;;;;;;4974110;28;900;-73
2023/01/03 10:58:22;;;;;;;;;;;20.10;67.60;;;;;;4972871;28;881;-72
2023/01/03 11:00:48;;;;;;;;;;;20.10;67.70;;;;;;4973032;28;1225;-73
2023/01/03 11:03:15;;;;;;;;;;;20.10;67.70;;;;;;4971798;28;1262;-73
2023/01/03 11:05:41;;;;;;;;;;;20.10;67.70;;;;;;4971677;28;1906;-73
2023/01/03 11:08:14;;;;;;;;;;;20.10;67.70;;;;;;4971969;28;864;-72
2023/01/03 11:10:49;;;;;;;;;;;20.10;67.80;;;;;;4971180;28;1284;-71
2023/01/03 11:13:20;;;;;;;;;;;20.10;68.10;;;;;;4971461;28;881;-71
2023/01/03 11:15:45;;;;;;;;;;;20.10;68.00;;;;;;4971525;28;968;-71
2023/01/03 11:18:17;;;;;;;;;;;20.10;68.10;;;;;;4972810;28;867;-71
2023/01/03 11:20:45;;;;;;;;;;;20.00;68.00;;;;;;4970602;28;1251;-72
2023/01/03 11:23:33;;;;;;;;;;;20.10;68.10;;;;;;4971710;28;923;-71
2023/01/03 11:26:02;;;;;;;;;;;20.00;68.00;;;;;;4930701;28;1347;-71
2023/01/03 11:28:30;;;;;;;;;;;20.00;68.00;;;;;;4952697;28;4770;-72
2023/01/03 11:30:56;;;;;;;;;;;20.00;69.00;;;;;;4972111;28;1306;-71
2023/01/03 11:33:34;;;;;;;;;;;20.00;68.20;;;;;;4972983;28;864;-70
2023/01/03 11:36:07;;;;;;;;;;;20.00;68.20;;;;;;4972775;28;943;-70
2023/01/03 11:38:54;;;;;;;;;;;20.00;68.20;;;;;;4970746;28;778;-70
2023/01/03 11:41:58;;;;;;;;;;;20.00;68.30;;;;;;4971091;28;1367;-70
2023/01/03 11:44:33;;;;;;;;;;;20.00;68.30;;;;;;4906057;29;1935;-71
2023/01/03 11:47:02;;;;;;;;;;;20.00;68.40;;;;;;4894027;29;893;-71
2023/01/03 11:49:28;;;;;;;;;;;20.00;68.40;;;;;;4934536;28;1166;-70
2023/01/03 11:52:00;;;;;;;;;;;20.00;68.50;;;;;;4972499;28;1342;-70
2023/01/03 11:54:44;;;;;;;;;;;20.00;68.50;;;;;;4971937;28;829;-70
2023/01/03 11:57:24;;;;;;;;;;;20.00;68.40;;;;;;4972055;28;869;-70
2023/01/03 11:59:52;;;;;;;;;;;20.00;68.30;;;;;;4970562;28;1087;-70
2023/01/03 12:02:17;;;;;;;;;;;20.00;68.40;;;;;;4970605;28;1224;-70
2023/01/03 12:04:45;;;;;;;;;;;19.90;68.30;;;;;;4971998;28;1922;-70
2023/01/03 12:07:18;;;;;;;;;;;20.00;68.50;;;;;;4971982;28;1457;-70
2023/01/03 12:09:44;;;;;;;;;;;19.90;68.30;;;;;;4969900;28;868;-70
2023/01/03 12:12:18;;;;;;;;;;;19.90;68.50;;;;;;4971545;28;1301;-70
2023/01/03 12:14:47;;;;;;;;;;;19.90;68.50;;;;;;4970887;28;992;-70
2023/01/03 12:17:17;;;;;;;;;;;19.90;68.60;;;;;;4969979;28;1059;-71
2023/01/03 12:19:42;;;;;;;;;;;19.90;68.60;;;;;;4966103;28;1471;-74
2023/01/03 12:22:37;;;;;;;;;;;19.90;68.60;;;;;;4971562;28;1330;-73
2023/01/03 12:25:08;;;;;;;;;;;19.90;68.60;;;;;;4917794;28;1972;-73
2023/01/03 12:27:34;;;;;;;;;;;19.90;68.60;;;;;;4970604;28;1188;-73
2023/01/03 12:30:05;;;;;;;;;;;19.80;68.50;;;;;;4971443;28;868;-73
2023/01/03 12:32:34;;;;;;;;;;;19.80;68.60;;;;;;4970621;28;1319;-73
2023/01/03 12:35:05;;;;;;;;;;;19.80;68.50;;;;;;4969936;28;959;-73
2023/01/03 12:37:32;;;;;;;;;;;19.80;68.70;;;;;;4969637;28;2136;-73
2023/01/03 12:40:04;;;;;;;;;;;19.80;68.70;;;;;;4969457;28;2397;-71
2023/01/03 12:42:29;;;;;;;;;;;19.80;68.70;;;;;;4971734;28;1341;-71
2023/01/03 12:45:01;;;;;;;;;;;19.80;68.70;;;;;;4972392;28;1902;-71
2023/01/03 12:47:46;;;;;;;;;;;19.80;69.10;;;;;;4972518;28;961;-71
2023/01/03 12:50:24;;;;;;;;;;;19.80;69.10;;;;;;4970678;28;829;-71
2023/01/03 12:53:02;;;;;;;;;;;19.80;69.00;;;;;;4970170;28;1034;-71
2023/01/03 12:55:33;;;;;;;;;;;19.80;69.10;;;;;;4969213;28;979;-72
2023/01/03 12:58:10;;;;;;;;;;;19.80;69.00;;;;;;4969987;28;920;-72
2023/01/03 13:00:44;;;;;;;;;;;19.70;69.00;;;;;;4969714;28;1287;-71
2023/01/03 13:03:17;;;;;;;;;;;19.80;69.20;;;;;;4969036;28;1278;-71
2023/01/03 13:05:49;;;;;;;;;;;19.70;69.10;;;;;;4970039;28;1899;-72
2023/01/03 13:08:33;;;;;;;;;;;19.70;69.10;;;;;;4969689;28;883;-70
2023/01/03 13:11:01;;;;;;;;;;;19.70;69.10;;;;;;4970973;28;1379;-71
2023/01/03 13:13:27;;;;;;;;;;;19.70;69.30;;;;;;4971249;28;837;-70
2023/01/03 13:15:53;;;;;;;;;;;19.70;69.40;;;;;;4969959;28;1260;-70
2023/01/03 13:18:21;;;;;;;;;;;19.70;69.40;;;;;;4970022;28;896;-72
2023/01/03 13:20:47;;;;;;;;;;;19.70;69.50;;;;;;4970852;28;1372;-71
2023/01/03 13:23:28;;;;;;;;;;;19.70;70.00;;;;;;4971072;28;1253;-71
2023/01/03 13:26:05;;;;;;;;;;;19.70;69.90;;;;;;4969602;28;1894;-71
2023/01/03 13:28:32;;;;;;;;;;;19.70;70.40;;;;;;4970668;28;912;-71
2023/01/03 13:31:19;;;;;;;;;;;19.70;70.20;;;;;;4971387;28;1439;-71
2023/01/03 13:33:51;;;;;;;;;;;19.70;70.30;;;;;;4968668;28;2092;-71
2023/01/03 13:36:16;;;;;;;;;;;19.70;70.20;;;;;;4969910;28;1718;-72
2023/01/03 13:38:42;;;;;;;;;;;19.70;70.00;;;;;;4970924;28;1269;-73
2023/01/03 13:41:26;;;;;;;;;;;19.80;70.10;;;;;;4969477;28;1265;-72
2023/01/03 13:43:51;;;;;;;;;;;19.90;70.00;;;;;;4971815;28;1967;-72
2023/01/03 13:46:21;;;;;;;;;;;19.90;69.80;;;;;;4974369;28;860;-72
2023/01/03 13:48:56;;;;;;;;;;;19.80;70.00;;;;;;4974904;28;896;-69
2023/01/03 13:51:22;;;;;;;;;;;19.80;69.70;;;;;;4973904;28;1704;-69
2023/01/03 13:53:57;;;;;;;;;;;19.80;69.80;;;;;;4974508;28;847;-68
2023/01/03 13:56:23;;;;;;;;;;;19.90;69.70;;;;;;4973708;28;809;-73
2023/01/03 13:58:49;;;;;;;;;;;19.80;69.70;;;;;;4973165;28;878;-70
2023/01/03 14:01:24;;;;;;;;;;;19.90;69.60;;;;;;4972772;28;1260;-70
2023/01/03 14:03:49;;;;;;;;;;;19.90;69.70;;;;;;4974271;28;1956;-68
2023/01/03 14:06:34;;;;;;;;;;;19.90;69.60;;;;;;4975125;28;964;-69
2023/01/03 14:09:11;;;;;;;;;;;19.90;69.40;;;;;;4973622;28;836;-70
2023/01/03 14:11:53;;;;;;;;;;;19.90;69.20;;;;;;4974064;28;1272;-69
2023/01/03 14:14:19;;;;;;;;;;;19.90;70.10;;;;;;4973219;28;897;-72
2023/01/03 14:16:46;;;;;;;;;;;19.90;69.20;;;;;;4972914;28;1199;-72
2023/01/03 14:19:18;;;;;;;;;;;20.00;69.10;;;;;;4953083;28;1586;-69
2023/01/03 14:21:45;;;;;;;;;;;20.00;69.10;;;;;;4972484;28;1343;-69
2023/01/03 14:24:15;;;;;;;;;;;20.00;69.20;;;;;;4973902;28;1906;-70
2023/01/03 14:26:40;;;;;;;;;;;20.00;69.10;;;;;;4972825;28;856;-70
2023/01/03 14:29:07;;;;;;;;;;;20.00;69.00;;;;;;4973764;28;826;-69
2023/01/03 14:31:32;;;;;;;;;;;20.00;69.00;;;;;;4973466;28;1393;-70
2023/01/03 14:33:58;;;;;;;;;;;20.00;68.80;;;;;;4971422;28;835;-70
2023/01/03 14:36:24;;;;;;;;;;;20.00;68.70;;;;;;4967939;28;2146;-71
2023/01/03 14:38:50;;;;;;;;;;;20.00;68.90;;;;;;4951779;28;1469;-73
2023/01/03 14:41:34;;;;;;;;;;;20.00;68.90;;;;;;4972506;28;1283;-72
2023/01/03 14:44:09;;;;;;;;;;;20.00;68.90;;;;;;4973476;28;1919;-70
2023/01/03 14:46:34;;;;;;;;;;;20.10;69.00;;;;;;4971567;28;1179;-72
2023/01/03 14:49:01;;;;;;;;;;;20.00;68.60;;;;;;4972113;28;883;-74
2023/01/03 14:51:28;;;;;;;;;;;20.10;68.80;;;;;;4970861;28;2390;-70
2023/01/03 14:53:54;;;;;;;;;;;20.00;68.80;;;;;;4973212;28;1370;-71
2023/01/03 14:56:21;;;;;;;;;;;20.00;68.80;;;;;;4971663;28;1636;-71
2023/01/03 14:58:46;;;;;;;;;;;20.10;68.90;;;;;;4972530;28;1668;-71
2023/01/03 15:01:13;;;;;;;;;;;20.00;68.70;;;;;;4972790;28;1354;-71
2023/01/03 15:03:39;;;;;;;;;;;20.10;68.90;;;;;;4973758;28;1350;-72
2023/01/03 15:06:21;;;;;;;;;;;20.10;68.70;;;;;;4952941;28;1443;-71
2023/01/03 15:08:48;;;;;;;;;;;20.10;68.70;;;;;;4973755;28;884;-69
2023/01/03 15:11:13;;;;;;;;;;;20.10;68.70;;;;;;4970922;28;1358;-70
2023/01/03 15:13:48;;;;;;;;;;;20.10;68.60;;;;;;4971639;28;960;-71
2023/01/03 15:16:17;;;;;;;;;;;20.10;68.60;;;;;;4973180;28;888;-70
2023/01/03 15:18:43;;;;;;;;;;;20.10;68.50;;;;;;4971666;28;864;-72
2023/01/03 15:21:12;;;;;;;;;;;20.10;68.70;;;;;;4970816;28;1344;-72
2023/01/03 15:23:41;;;;;;;;;;;20.10;68.70;;;;;;4970808;28;884;-70
2023/01/03 15:26:07;;;;;;;;;;;20.10;68.80;;;;;;4969665;28;874;-71
2023/01/03 15:28:36;;;;;;;;;;;20.10;68.70;;;;;;4971569;28;1258;-70
2023/01/03 15:31:12;;;;;;;;;;;20.10;68.70;;;;;;4971219;28;1682;-70
2023/01/03 15:33:37;;;;;;;;;;;20.10;68.80;;;;;;4971448;28;1007;-71
2023/01/03 15:36:09;;;;;;;;;;;20.10;68.70;;;;;;4971139;28;930;-71
2023/01/03 15:38:38;;;;;;;;;;;20.10;68.80;;;;;;4970115;28;1406;-71
2023/01/03 15:41:05;;;;;;;;;;;20.10;68.90;;;;;;4970483;28;1352;-70
2023/01/03 15:43:32;;;;;;;;;;;20.10;68.90;;;;;;4971162;28;1285;-71
2023/01/03 15:46:04;;;;;;;;;;;20.10;69.00;;;;;;4970355;28;1972;-70
2023/01/03 15:48:35;;;;;;;;;;;20.10;69.20;;;;;;4971822;28;795;-71